Time;durP1;ratioP1;P1;durP2;ratioP2;P2;SDS_P1;SDS_P2;PMS_P1;PMS_P2;Temp;Humidity;BMP_temperature;BMP_pressure;BME280_temperature;BME280_humidity;BME280_pressure;Samples;Min_cycle;Max_cycle;Signal;HPM_P1;HPM_P2
2022/03/26 00:01:03;;;;;;;4.10;3.70;;;18.80;44.30;19.80;102197.00;;;;4986271;28;20214;-48
2022/03/26 00:03:28;;;;;;;3.87;3.57;;;18.80;44.30;19.80;102189.00;;;;4985558;28;20200;-48
2022/03/26 00:05:54;;;;;;;4.23;3.93;;;18.70;44.20;19.80;102196.00;;;;4986043;28;20676;-49
2022/03/26 00:08:20;;;;;;;3.97;3.67;;;18.70;44.30;19.80;102194.00;;;;4986334;28;20195;-51
2022/03/26 00:10:45;;;;;;;4.00;3.70;;;18.70;44.30;19.80;102191.00;;;;4986444;28;20666;-50
2022/03/26 00:13:11;;;;;;;4.27;3.87;;;18.70;44.30;19.70;102184.00;;;;4987474;28;20186;-49
2022/03/26 00:15:37;;;;;;;4.37;3.97;;;18.70;44.20;19.70;102192.00;;;;4990537;28;20176;-48
2022/03/26 00:18:02;;;;;;;4.27;3.87;;;18.70;44.40;19.50;102189.00;;;;4990854;28;20207;-49
2022/03/26 00:20:28;;;;;;;4.40;4.00;;;18.70;44.30;19.70;102194.00;;;;4990320;28;20210;-49
2022/03/26 00:22:54;;;;;;;3.97;3.67;;;18.70;44.40;19.70;102188.00;;;;4990102;28;20653;-49
2022/03/26 00:25:20;;;;;;;4.43;4.10;;;18.70;44.40;19.60;102188.00;;;;4990074;28;20171;-49
2022/03/26 00:27:45;;;;;;;4.10;3.80;;;18.70;44.30;19.60;102195.00;;;;4989981;28;20196;-50
2022/03/26 00:30:11;;;;;;;4.10;3.80;;;18.70;44.30;19.60;102192.00;;;;4990191;28;20520;-49
2022/03/26 00:32:38;;;;;;;4.00;3.70;;;18.60;44.20;19.60;102192.00;;;;4990006;28;20300;-48
2022/03/26 00:35:05;;;;;;;4.40;4.10;;;18.60;44.30;19.60;102184.00;;;;4989885;28;20183;-49
2022/03/26 00:37:30;;;;;;;4.40;4.00;;;18.60;44.30;19.60;102195.00;;;;4989517;28;20306;-51
2022/03/26 00:39:56;;;;;;;3.70;3.40;;;18.60;44.40;19.60;102193.00;;;;4989838;28;20165;-49
2022/03/26 00:42:22;;;;;;;4.20;3.90;;;18.60;44.40;19.50;102189.00;;;;4990168;28;20249;-49
2022/03/26 00:44:48;;;;;;;4.40;4.00;;;18.60;44.40;19.50;102191.00;;;;4990026;28;20199;-48
2022/03/26 00:47:13;;;;;;;4.37;3.97;;;18.50;44.30;19.50;102190.00;;;;4989472;28;20702;-50
2022/03/26 00:49:39;;;;;;;4.03;3.73;;;18.50;44.40;19.50;102188.00;;;;4990056;28;20179;-48
2022/03/26 00:52:05;;;;;;;4.27;3.97;;;18.50;44.40;19.50;102188.00;;;;4989610;28;20180;-49
2022/03/26 00:54:32;;;;;;;4.40;4.10;;;18.50;44.40;19.50;102189.00;;;;4989656;28;20176;-48
2022/03/26 00:56:58;;;;;;;4.10;3.80;;;18.50;44.50;19.50;102191.00;;;;4989507;28;20207;-48
2022/03/26 00:59:24;;;;;;;4.30;3.90;;;18.50;44.40;19.50;102204.00;;;;4989477;28;20199;-48
2022/03/26 01:01:49;;;;;;;4.00;3.70;;;18.40;44.40;19.40;102187.00;;;;4989588;28;20172;-49
2022/03/26 01:04:15;;;;;;;4.60;4.20;;;18.40;44.40;19.40;102191.00;;;;4989663;28;20677;-50
2022/03/26 01:06:41;;;;;;;4.47;4.10;;;18.40;44.50;19.40;102188.00;;;;4989494;28;20180;-48
2022/03/26 01:09:10;;;;;;;4.47;4.07;;;18.40;44.50;19.40;102191.00;;;;4989545;28;20219;-48
2022/03/26 01:11:36;;;;;;;4.50;4.10;;;18.40;44.50;19.40;102197.00;;;;4980131;28;20741;-48
2022/03/26 01:14:02;;;;;;;4.70;4.30;;;18.40;44.40;19.40;102187.00;;;;4989443;28;20183;-47
2022/03/26 01:16:28;;;;;;;4.10;3.80;;;18.40;44.40;19.40;102197.00;;;;4989128;28;20196;-50
2022/03/26 01:18:55;;;;;;;4.20;3.90;;;18.40;44.50;19.40;102188.00;;;;4989047;28;20209;-51
2022/03/26 01:21:21;;;;;;;4.30;4.00;;;18.40;44.50;19.30;102188.00;;;;4989053;28;20229;-47
2022/03/26 01:23:47;;;;;;;4.50;4.10;;;18.40;44.50;19.30;102186.00;;;;4989266;28;20166;-50
2022/03/26 01:26:14;;;;;;;4.60;4.20;;;18.30;44.40;19.30;102181.00;;;;4988242;28;20180;-46
2022/03/26 01:28:40;;;;;;;4.30;4.00;;;18.30;44.40;19.30;102185.00;;;;4988887;28;20194;-51
2022/03/26 01:31:06;;;;;;;4.53;4.13;;;18.30;44.40;19.30;102183.00;;;;4988272;28;20205;-49
2022/03/26 01:33:31;;;;;;;4.70;4.30;;;18.30;44.40;19.30;102193.00;;;;4988731;28;20168;-50
2022/03/26 01:35:57;;;;;;;4.77;4.37;;;18.30;44.40;19.30;102190.00;;;;4988619;28;20191;-49
2022/03/26 01:38:23;;;;;;;4.73;4.30;;;18.30;44.40;19.30;102179.00;;;;4988629;28;20224;-49
2022/03/26 01:40:49;;;;;;;4.50;4.20;;;18.20;44.30;19.20;102189.00;;;;4988543;28;20677;-48
2022/03/26 01:43:15;;;;;;;4.33;4.00;;;18.20;44.40;19.20;102183.00;;;;4988606;28;20177;-48
2022/03/26 01:45:40;;;;;;;4.90;4.50;;;18.20;44.30;19.20;102178.00;;;;4989109;28;20174;-49
2022/03/26 01:48:06;;;;;;;4.70;4.30;;;18.20;44.40;19.20;102179.00;;;;4988556;28;20660;-50
2022/03/26 01:50:32;;;;;;;4.70;4.30;;;18.30;44.50;19.20;102167.00;;;;4988873;28;20259;-49
2022/03/26 01:52:58;;;;;;;4.73;4.33;;;18.20;44.40;19.10;102171.00;;;;4988574;28;20230;-49
2022/03/26 01:55:25;;;;;;;4.33;3.97;;;18.20;44.60;19.10;102166.00;;;;4988306;28;20168;-48
2022/03/26 01:57:51;;;;;;;4.37;4.07;;;18.20;44.70;19.10;102155.00;;;;4988098;28;20279;-49
2022/03/26 02:00:17;;;;;;;4.53;4.20;;;18.20;44.60;19.10;102172.00;;;;4989032;28;20174;-48
2022/03/26 02:02:43;;;;;;;5.00;4.60;;;18.10;44.40;19.10;102173.00;;;;4988408;28;20173;-50
2022/03/26 02:05:17;;;;;;;4.30;4.00;;;18.10;44.40;19.10;102180.00;;;;4987227;28;20175;-49
2022/03/26 02:07:44;;;;;;;4.77;4.37;;;18.10;44.50;19.10;102178.00;;;;4988376;28;20243;-50
2022/03/26 02:10:11;;;;;;;4.33;4.00;;;18.10;44.40;19.10;102178.00;;;;4988064;28;20293;-50
2022/03/26 02:12:37;;;;;;;4.50;4.10;;;18.10;44.40;19.10;102181.00;;;;4988363;28;20180;-49
2022/03/26 02:15:04;;;;;;;4.60;4.30;;;18.10;44.40;19.10;102180.00;;;;4988674;28;20186;-49
2022/03/26 02:17:30;;;;;;;4.70;4.30;;;18.00;44.30;19.10;102185.00;;;;4987955;28;20212;-48
2022/03/26 02:19:57;;;;;;;4.50;4.10;;;18.00;44.30;19.10;102179.00;;;;4988824;28;20257;-49
2022/03/26 02:22:23;;;;;;;4.80;4.40;;;18.00;44.30;19.00;102191.00;;;;4988666;28;20172;-49
2022/03/26 02:24:49;;;;;;;4.53;4.13;;;18.00;44.40;19.00;102190.00;;;;4988067;28;20178;-49
2022/03/26 02:27:15;;;;;;;4.97;4.57;;;18.00;44.30;19.00;102188.00;;;;4987817;28;20848;-50
2022/03/26 02:29:41;;;;;;;4.93;4.53;;;18.00;44.20;19.00;102176.00;;;;4988004;28;20172;-49
2022/03/26 02:32:07;;;;;;;4.93;4.53;;;18.00;44.30;19.00;102183.00;;;;4987467;28;20207;-46
2022/03/26 02:34:33;;;;;;;4.60;4.30;;;18.00;44.30;19.00;102186.00;;;;4987683;28;20895;-48
2022/03/26 02:36:59;;;;;;;4.50;4.20;;;18.00;44.30;19.00;102178.00;;;;4986530;28;20219;-48
2022/03/26 02:39:25;;;;;;;4.97;4.57;;;17.90;44.30;19.00;102186.00;;;;4988332;28;20761;-48
2022/03/26 02:41:51;;;;;;;4.90;4.50;;;17.90;44.20;19.00;102173.00;;;;4989618;28;20199;-49
2022/03/26 02:44:17;;;;;;;4.70;4.30;;;17.90;44.20;19.00;102181.00;;;;4988728;28;20179;-48
2022/03/26 02:46:45;;;;;;;4.77;4.37;;;17.90;44.20;19.00;102184.00;;;;4988300;28;20186;-47
2022/03/26 02:49:14;;;;;;;4.40;4.10;;;17.90;44.30;18.90;102191.00;;;;4988325;28;20232;-47
2022/03/26 02:51:40;;;;;;;4.50;4.20;;;17.90;44.20;18.90;102187.00;;;;4986830;28;20260;-49
2022/03/26 02:54:06;;;;;;;5.17;4.67;;;17.80;44.20;18.90;102178.00;;;;4987983;28;20189;-49
2022/03/26 02:56:32;;;;;;;4.87;4.50;;;17.90;44.20;18.90;102181.00;;;;4986283;28;20542;-48
2022/03/26 02:58:57;;;;;;;4.87;4.47;;;17.80;44.20;18.90;102183.00;;;;4987753;28;20188;-49
2022/03/26 03:01:23;;;;;;;4.63;4.23;;;17.80;44.20;18.80;102186.00;;;;4987397;28;20202;-49
2022/03/26 03:03:52;;;;;;;4.83;4.43;;;17.80;44.20;18.80;102189.00;;;;4987072;28;20180;-49
2022/03/26 03:06:18;;;;;;;5.00;4.60;;;17.80;44.30;18.80;102190.00;;;;4987129;28;20263;-50
2022/03/26 03:08:44;;;;;;;5.00;4.60;;;17.80;44.20;18.80;102177.00;;;;4987320;28;20196;-49
2022/03/26 03:11:09;;;;;;;5.10;4.70;;;17.80;44.20;18.80;102189.00;;;;4986973;28;20912;-51
2022/03/26 03:13:36;;;;;;;4.53;4.23;;;17.80;44.20;18.80;102182.00;;;;4987121;28;20176;-48
2022/03/26 03:16:01;;;;;;;4.63;4.33;;;17.70;44.10;18.80;102189.00;;;;4986725;28;20664;-48
2022/03/26 03:18:27;;;;;;;4.80;4.40;;;17.70;44.10;18.80;102173.00;;;;4986320;28;20240;-48
2022/03/26 03:20:53;;;;;;;4.60;4.30;;;17.70;44.20;18.80;102175.00;;;;4986872;28;20235;-50
2022/03/26 03:23:18;;;;;;;5.10;4.70;;;17.70;44.10;18.70;102179.00;;;;4987602;28;20654;-49
2022/03/26 03:25:44;;;;;;;4.90;4.50;;;17.70;44.20;18.70;102181.00;;;;4986628;28;20180;-50
2022/03/26 03:28:10;;;;;;;5.17;4.67;;;17.70;44.10;18.70;102183.00;;;;4986516;28;20200;-48
2022/03/26 03:30:36;;;;;;;5.10;4.70;;;17.70;44.20;18.70;102178.00;;;;4986522;28;20169;-50
2022/03/26 03:33:01;;;;;;;4.53;4.13;;;17.70;44.20;18.70;102180.00;;;;4986754;28;20204;-49
2022/03/26 03:35:27;;;;;;;4.97;4.57;;;17.70;44.20;18.70;102182.00;;;;4986801;28;20192;-49
2022/03/26 03:37:53;;;;;;;4.67;4.30;;;17.60;44.10;18.60;102182.00;;;;4986224;28;20210;-49
2022/03/26 03:40:18;;;;;;;4.93;4.53;;;17.60;44.20;18.60;102186.00;;;;4986466;28;20672;-51
2022/03/26 03:42:44;;;;;;;5.23;4.83;;;17.60;44.10;18.60;102193.00;;;;4987145;28;20182;-49
2022/03/26 03:45:10;;;;;;;4.97;4.57;;;17.60;44.10;18.60;102188.00;;;;4986927;28;20264;-49
2022/03/26 03:47:39;;;;;;;5.27;4.77;;;17.60;44.10;18.60;102200.00;;;;4985926;28;20257;-48
2022/03/26 03:50:06;;;;;;;5.10;4.60;;;17.60;44.30;18.50;102196.00;;;;4986302;28;20183;-48
2022/03/26 03:52:31;;;;;;;4.87;4.47;;;17.60;44.30;18.50;102191.00;;;;4984526;28;20561;-51
2022/03/26 03:54:57;;;;;;;8.87;5.00;;;17.50;44.10;18.60;102191.00;;;;4985783;28;20187;-50
2022/03/26 03:57:23;;;;;;;8.77;4.80;;;17.60;44.30;18.60;102193.00;;;;5000684;28;20191;-48
2022/03/26 03:59:48;;;;;;;6.40;4.63;;;17.50;44.40;18.60;102199.00;;;;4986380;28;20188;-49
2022/03/26 04:02:14;;;;;;;5.90;5.03;;;17.50;44.40;18.50;102198.00;;;;4986426;28;20713;-48
2022/03/26 04:04:41;;;;;;;7.07;5.67;;;17.50;44.40;18.50;102201.00;;;;4985733;28;20226;-49
2022/03/26 04:07:07;;;;;;;6.00;5.50;;;17.50;44.40;18.50;102189.00;;;;4984475;28;20543;-48
2022/03/26 04:09:33;;;;;;;8.63;5.90;;;17.50;44.50;18.50;102193.00;;;;4984545;28;20183;-50
2022/03/26 04:12:00;;;;;;;6.30;5.73;;;17.50;44.50;18.50;102188.00;;;;4986504;28;20183;-48
2022/03/26 04:14:26;;;;;;;6.43;5.83;;;17.50;44.50;18.40;102185.00;;;;4987703;28;20185;-51
2022/03/26 04:16:52;;;;;;;8.43;6.50;;;17.40;44.30;18.40;102190.00;;;;4988619;28;20236;-51
2022/03/26 04:19:18;;;;;;;7.83;6.40;;;17.40;44.40;18.40;102199.00;;;;4988902;28;20217;-49
2022/03/26 04:21:45;;;;;;;7.13;6.43;;;17.40;44.40;18.40;102192.00;;;;4989225;28;20180;-50
2022/03/26 04:24:10;;;;;;;7.80;6.50;;;17.40;45.00;18.30;102199.00;;;;4988436;28;20163;-49
2022/03/26 04:26:36;;;;;;;7.20;6.60;;;17.40;44.40;18.30;102200.00;;;;4988530;28;20172;-49
2022/03/26 04:29:02;;;;;;;9.10;7.70;;;17.30;44.30;18.30;102208.00;;;;4988408;28;20219;-49
2022/03/26 04:31:28;;;;;;;8.20;7.40;;;17.30;44.40;18.20;102205.00;;;;4989089;28;20193;-50
2022/03/26 04:33:54;;;;;;;7.90;7.10;;;17.30;44.50;18.20;102209.00;;;;4988946;28;20157;-49
2022/03/26 04:36:23;;;;;;;7.90;7.10;;;17.30;44.30;18.30;102216.00;;;;4988041;28;20197;-48
2022/03/26 04:38:48;;;;;;;8.10;7.33;;;17.30;44.20;18.30;102204.00;;;;4988389;28;20214;-49
2022/03/26 04:41:14;;;;;;;7.60;6.90;;;17.30;44.20;18.20;102208.00;;;;4989199;28;20248;-50
2022/03/26 04:43:40;;;;;;;7.83;7.07;;;17.20;44.20;18.20;102202.00;;;;4988828;28;20185;-49
2022/03/26 04:46:06;;;;;;;8.53;7.70;;;17.20;44.20;18.20;102198.00;;;;4988210;28;20550;-49
2022/03/26 04:48:31;;;;;;;9.07;7.63;;;17.20;44.20;18.20;102206.00;;;;4988835;28;20268;-49
2022/03/26 04:50:58;;;;;;;9.37;7.10;;;17.20;44.30;18.20;102197.00;;;;4988621;28;20203;-48
2022/03/26 04:53:23;;;;;;;11.63;7.33;;;17.20;44.30;18.20;102208.00;;;;4988471;28;20525;-49
2022/03/26 04:55:49;;;;;;;8.00;7.20;;;17.20;44.40;18.20;102202.00;;;;4988345;28;20203;-49
2022/03/26 04:58:15;;;;;;;7.87;7.07;;;17.20;44.40;18.20;102204.00;;;;4988301;28;20191;-48
2022/03/26 05:00:40;;;;;;;12.20;7.13;;;17.20;44.50;18.20;102196.00;;;;4990445;28;20173;-50
2022/03/26 05:03:07;;;;;;;7.73;6.97;;;17.20;44.60;18.20;102204.00;;;;4992919;28;20661;-48
2022/03/26 05:05:33;;;;;;;7.73;7.03;;;17.10;44.50;18.10;102209.00;;;;4992497;28;20168;-51
2022/03/26 05:07:59;;;;;;;7.57;6.87;;;17.10;44.50;18.10;102205.00;;;;4992309;28;20211;-49
2022/03/26 05:10:28;;;;;;;8.63;7.03;;;17.10;44.50;18.10;102208.00;;;;4993265;28;20811;-48
2022/03/26 05:12:54;;;;;;;7.60;6.90;;;17.10;44.60;18.10;102215.00;;;;4998763;28;20199;-49
2022/03/26 05:15:21;;;;;;;8.90;6.90;;;17.10;44.60;18.10;102214.00;;;;4995495;28;20172;-50
2022/03/26 05:17:47;;;;;;;7.17;6.47;;;17.00;44.50;18.10;102212.00;;;;4993845;28;20208;-49
2022/03/26 05:20:13;;;;;;;6.93;6.23;;;17.00;44.50;18.10;102210.00;;;;4992477;28;20655;-49
2022/03/26 05:22:41;;;;;;;8.03;6.20;;;17.10;44.50;18.10;102195.00;;;;4992174;28;20696;-50
2022/03/26 05:25:08;;;;;;;8.07;6.63;;;17.10;44.60;18.10;102215.00;;;;4991905;28;20199;-49
2022/03/26 05:27:34;;;;;;;7.13;6.43;;;17.00;44.50;18.10;102214.00;;;;4991301;28;20283;-49
2022/03/26 05:30:00;;;;;;;6.97;6.27;;;17.00;44.50;18.00;102223.00;;;;4990704;28;20183;-49
2022/03/26 05:32:25;;;;;;;6.37;5.77;;;17.00;44.60;18.00;102222.00;;;;4991499;28;20160;-48
2022/03/26 05:34:51;;;;;;;8.70;5.60;;;17.00;44.50;18.00;102228.00;;;;4991893;28;20176;-51
2022/03/26 05:37:18;;;;;;;6.57;5.97;;;17.00;44.60;18.00;102230.00;;;;4990968;28;20254;-49
2022/03/26 05:39:44;;;;;;;6.00;5.50;;;17.00;44.60;18.00;102239.00;;;;4991767;28;20168;-49
2022/03/26 05:42:10;;;;;;;6.67;5.97;;;17.00;44.70;18.00;102245.00;;;;4991671;28;20199;-49
2022/03/26 05:44:36;;;;;;;6.40;5.80;;;17.00;44.70;17.90;102236.00;;;;4992318;28;20172;-49
2022/03/26 05:47:02;;;;;;;6.47;5.87;;;16.90;44.70;17.90;102237.00;;;;4990909;28;20183;-50
2022/03/26 05:49:27;;;;;;;5.87;5.37;;;16.90;44.80;17.90;102248.00;;;;4992023;28;20220;-49
2022/03/26 05:51:53;;;;;;;6.43;5.83;;;16.90;44.80;17.90;102252.00;;;;4991583;28;20176;-48
2022/03/26 05:54:19;;;;;;;6.47;5.87;;;16.90;44.80;17.90;102256.00;;;;4993278;28;20166;-48
2022/03/26 05:56:53;;;;;;;6.57;5.97;;;16.90;44.80;17.90;102259.00;;;;4992381;28;20192;-48
2022/03/26 05:59:24;;;;;;;6.23;5.73;;;16.90;44.90;17.90;102262.00;;;;4991969;28;20200;-50
2022/03/26 06:01:54;;;;;;;6.17;5.57;;;16.90;45.60;17.90;102263.00;;;;4991754;28;20958;-49
2022/03/26 06:04:20;;;;;;;5.90;5.40;;;16.90;44.90;17.80;102267.00;;;;4991635;28;20704;-50
2022/03/26 06:06:47;;;;;;;6.30;5.70;;;16.80;44.80;17.80;102273.00;;;;4990669;28;20168;-48
2022/03/26 06:09:12;;;;;;;6.30;5.70;;;16.80;44.90;17.80;102279.00;;;;4991126;28;20302;-49
2022/03/26 06:11:38;;;;;;;6.10;5.60;;;16.80;44.90;17.80;102258.00;;;;4991054;28;20181;-49
2022/03/26 06:14:04;;;;;;;5.80;5.30;;;16.80;44.90;17.80;102280.00;;;;4990827;28;20274;-48
2022/03/26 06:16:30;;;;;;;5.57;5.00;;;16.80;44.90;17.80;102278.00;;;;4990621;28;20232;-49
2022/03/26 06:18:56;;;;;;;6.17;5.67;;;16.80;44.90;17.80;102275.00;;;;4990729;28;20187;-49
2022/03/26 06:21:21;;;;;;;6.00;5.40;;;16.70;44.80;17.80;102277.00;;;;4990681;28;20177;-49
2022/03/26 06:23:47;;;;;;;5.77;5.27;;;16.70;44.80;17.70;102277.00;;;;4990817;28;20297;-49
2022/03/26 06:26:13;;;;;;;6.30;5.70;;;16.70;44.80;17.70;102279.00;;;;4990140;28;20181;-48
2022/03/26 06:28:38;;;;;;;6.00;5.50;;;16.70;44.80;17.70;102263.00;;;;4990338;28;20200;-49
2022/03/26 06:31:04;;;;;;;6.20;5.43;;;16.70;44.80;17.70;102258.00;;;;4990538;28;20280;-49
2022/03/26 06:33:30;;;;;;;5.97;5.47;;;16.70;44.80;17.70;102279.00;;;;4990741;28;20215;-48
2022/03/26 06:35:56;;;;;;;5.27;4.87;;;16.70;44.80;17.70;102283.00;;;;4989897;28;20172;-49
2022/03/26 06:38:21;;;;;;;5.90;5.40;;;16.70;44.80;17.70;102287.00;;;;4989528;28;20631;-49
2022/03/26 06:40:48;;;;;;;5.77;5.27;;;16.70;44.80;17.70;102285.00;;;;4991111;28;20165;-48
2022/03/26 06:43:13;;;;;;;5.80;5.20;;;16.70;44.90;17.70;102292.00;;;;4990943;28;20182;-48
2022/03/26 06:45:40;;;;;;;5.87;5.37;;;16.60;44.80;17.60;102285.00;;;;4990093;28;20161;-49
2022/03/26 06:48:07;;;;;;;5.47;4.97;;;16.60;44.90;17.60;102288.00;;;;4990116;28;20215;-48
2022/03/26 06:50:32;;;;;;;5.57;5.07;;;16.60;44.90;17.60;102295.00;;;;4990357;28;20652;-47
2022/03/26 06:52:59;;;;;;;5.80;5.30;;;16.60;44.90;17.60;102293.00;;;;4990061;28;20164;-50
2022/03/26 06:55:25;;;;;;;5.97;5.47;;;16.60;44.90;17.60;102297.00;;;;4990450;28;20172;-48
2022/03/26 06:57:51;;;;;;;5.37;4.93;;;16.60;44.80;17.60;102288.00;;;;4989539;28;20270;-49
2022/03/26 07:00:16;;;;;;;6.03;5.50;;;16.60;44.90;17.60;102296.00;;;;4990214;28;20168;-47
2022/03/26 07:02:43;;;;;;;6.10;5.60;;;16.60;44.90;17.60;102302.00;;;;4990267;28;20180;-49
2022/03/26 07:05:09;;;;;;;5.50;5.00;;;16.60;45.00;17.60;102297.00;;;;4990257;28;20200;-50
2022/03/26 07:07:35;;;;;;;5.80;5.30;;;16.50;44.90;17.50;102296.00;;;;4989367;28;20192;-49
2022/03/26 07:10:01;;;;;;;5.70;5.20;;;16.50;44.90;17.50;102296.00;;;;4989667;28;20188;-50
2022/03/26 07:12:27;;;;;;;5.40;5.00;;;16.50;45.40;17.50;102297.00;;;;4989903;28;20164;-47
2022/03/26 07:14:53;;;;;;;5.90;5.30;;;16.50;45.40;17.50;102302.00;;;;4990084;28;20175;-47
2022/03/26 07:17:18;;;;;;;6.27;5.40;;;16.50;46.10;17.50;102314.00;;;;4988718;28;20562;-49
2022/03/26 07:19:44;;;;;;;5.57;5.07;;;16.50;45.70;17.50;102306.00;;;;4989599;28;20300;-49
2022/03/26 07:22:10;;;;;;;7.07;5.20;;;16.50;45.60;17.40;102303.00;;;;4985037;28;20244;-49
2022/03/26 07:24:36;;;;;;;5.67;5.20;;;16.50;45.70;17.40;102316.00;;;;4970240;28;20698;-50
2022/03/26 07:27:02;;;;;;;5.40;5.00;;;16.50;46.00;17.40;102312.00;;;;4969681;28;20841;-48
2022/03/26 07:29:27;;;;;;;6.17;5.40;;;16.60;46.30;17.40;102315.00;;;;4970649;28;20201;-48
2022/03/26 07:31:54;;;;;;;7.63;5.43;;;16.80;46.30;17.50;102309.00;;;;4970087;28;20328;-50
2022/03/26 07:34:20;;;;;;;7.47;5.23;;;17.00;46.40;17.60;102321.00;;;;4970543;28;20173;-49
2022/03/26 07:36:46;;;;;;;7.70;5.50;;;17.40;46.30;17.70;102320.00;;;;4984324;28;20234;-49
2022/03/26 07:39:12;;;;;;;5.60;5.10;;;17.70;45.90;17.90;102314.00;;;;4969885;28;20200;-50
2022/03/26 07:41:38;;;;;;;6.63;5.20;;;18.00;45.40;18.00;102325.00;;;;4970178;28;20665;-51
2022/03/26 07:44:04;;;;;;;8.33;5.43;;;18.30;45.00;18.20;102324.00;;;;4970364;28;20169;-48
2022/03/26 07:46:30;;;;;;;5.67;5.13;;;18.40;44.70;18.40;102319.00;;;;4970203;28;20174;-49
2022/03/26 07:48:56;;;;;;;5.77;5.13;;;18.60;44.70;18.50;102314.00;;;;4969955;28;20193;-49
2022/03/26 07:51:21;;;;;;;5.77;5.17;;;18.80;44.60;18.70;102331.00;;;;4969881;28;20665;-49
2022/03/26 07:53:47;;;;;;;6.13;5.30;;;19.00;44.50;18.80;102317.00;;;;4984686;28;20233;-49
2022/03/26 07:56:13;;;;;;;6.23;5.50;;;19.10;44.30;19.00;102322.00;;;;4970107;28;20272;-49
2022/03/26 07:58:39;;;;;;;5.47;4.80;;;19.20;44.30;19.10;102307.00;;;;4970666;28;20204;-48
2022/03/26 08:01:06;;;;;;;5.10;4.47;;;19.30;44.30;19.20;102316.00;;;;4969616;28;20169;-51
2022/03/26 08:03:33;;;;;;;4.93;4.53;;;19.40;44.20;19.30;102321.00;;;;4969931;28;20592;-50
2022/03/26 08:05:58;;;;;;;5.77;5.10;;;19.50;44.40;19.40;102314.00;;;;4969478;28;20243;-49
2022/03/26 08:08:25;;;;;;;8.57;5.00;;;19.60;44.60;19.50;102314.00;;;;4969057;28;21068;-50
2022/03/26 08:10:51;;;;;;;7.77;4.90;;;19.50;45.00;19.50;102310.00;;;;4969549;28;20343;-47
2022/03/26 08:13:17;;;;;;;6.13;4.90;;;19.60;45.20;19.60;102303.00;;;;4881066;28;20236;-48
2022/03/26 08:15:43;;;;;;;6.40;5.00;;;19.50;45.40;19.20;102309.00;;;;4991101;28;20180;-49
2022/03/26 08:18:09;;;;;;;11.80;4.77;;;19.60;45.50;19.70;102319.00;;;;4990451;28;20295;-52
2022/03/26 08:20:34;;;;;;;6.87;4.83;;;19.50;45.80;19.70;102309.00;;;;5008678;28;20673;-54
2022/03/26 08:23:00;;;;;;;5.33;4.83;;;19.50;45.90;19.70;102317.00;;;;5008422;28;20179;-51
2022/03/26 08:28:11;;;;;;;5.60;4.30;;;19.50;46.10;19.70;102312.00;;;;5008655;28;20221;-51
2022/03/26 08:30:37;;;;;;;6.33;4.50;;;19.40;46.40;19.70;102314.00;;;;5004188;28;20176;-51
2022/03/26 08:33:02;;;;;;;5.53;4.87;;;19.40;46.50;19.70;102323.00;;;;4990481;28;20678;-51
2022/03/26 08:35:35;;;;;;;5.63;5.07;;;19.40;46.60;19.80;102327.00;;;;4990816;28;20183;-54
2022/03/26 08:38:01;;;;;;;5.83;4.90;;;19.40;46.80;19.80;102321.00;;;;4988056;28;20206;-52
2022/03/26 08:40:27;;;;;;;5.53;4.90;;;19.40;47.20;19.80;102325.00;;;;4973456;28;20168;-50
2022/03/26 08:42:53;;;;;;;6.47;5.30;;;19.50;47.90;19.80;102319.00;;;;4983626;28;20190;-55
2022/03/26 08:45:19;;;;;;;7.47;4.93;;;19.50;48.10;19.80;102323.00;;;;4990401;28;20657;-53
2022/03/26 08:47:46;;;;;;;5.87;4.87;;;19.40;48.00;19.80;102319.00;;;;4991590;28;20196;-52
2022/03/26 08:50:12;;;;;;;5.53;4.90;;;19.40;48.10;19.80;102320.00;;;;4992020;28;20745;-53
2022/03/26 08:52:37;;;;;;;8.53;5.37;;;19.40;48.10;19.80;102327.00;;;;4991895;28;20173;-51
2022/03/26 08:55:04;;;;;;;10.37;5.00;;;19.40;48.10;19.80;102251.00;;;;4991774;28;20211;-53
2022/03/26 08:57:30;;;;;;;9.53;5.13;;;19.30;48.00;19.80;102321.00;;;;5006513;28;20199;-52
2022/03/26 08:59:56;;;;;;;8.43;5.00;;;19.30;48.10;19.80;102305.00;;;;5012280;28;20171;-52
2022/03/26 09:02:22;;;;;;;6.90;4.90;;;19.30;48.10;19.80;102324.00;;;;4994744;28;20172;-51
2022/03/26 09:04:47;;;;;;;8.57;5.40;;;19.30;48.20;19.80;102329.00;;;;5012035;28;20187;-52
2022/03/26 09:07:13;;;;;;;15.53;5.80;;;19.30;49.00;19.70;102322.00;;;;5012363;28;20187;-52
2022/03/26 09:09:39;;;;;;;11.03;5.93;;;19.30;49.00;19.70;102319.00;;;;5016874;28;20194;-54
2022/03/26 09:12:05;;;;;;;24.27;5.73;;;19.20;48.90;19.70;102318.00;;;;4999622;28;20187;-53
2022/03/26 09:14:31;;;;;;;13.20;6.00;;;19.20;49.00;19.70;102324.00;;;;4994081;28;20194;-52
2022/03/26 09:16:57;;;;;;;7.97;6.10;;;19.20;49.10;19.70;102320.00;;;;4992293;28;20179;-52
2022/03/26 09:19:22;;;;;;;9.63;5.70;;;19.20;49.00;19.70;102322.00;;;;4992701;28;20672;-51
2022/03/26 09:21:49;;;;;;;12.03;5.63;;;19.10;48.90;19.70;102319.00;;;;4992493;28;20854;-51
2022/03/26 09:24:16;;;;;;;9.20;5.10;;;19.20;49.00;19.70;102324.00;;;;4992193;28;20171;-54
2022/03/26 09:26:42;;;;;;;8.57;5.00;;;19.20;49.10;19.70;102312.00;;;;4992059;28;20183;-51
2022/03/26 09:29:08;;;;;;;8.83;5.20;;;19.10;49.00;19.70;102319.00;;;;4990277;28;20687;-51
2022/03/26 09:31:34;;;;;;;10.60;5.77;;;19.10;49.00;19.70;102301.00;;;;4990733;28;20181;-52
2022/03/26 09:34:00;;;;;;;8.97;5.33;;;19.10;49.10;19.70;102319.00;;;;4991370;28;20178;-52
2022/03/26 09:36:25;;;;;;;15.43;5.73;;;19.10;49.10;19.70;102303.00;;;;4992147;28;20539;-51
2022/03/26 09:38:51;;;;;;;9.00;5.50;;;19.10;49.10;19.70;102313.00;;;;4991645;28;20238;-52
2022/03/26 09:41:17;;;;;;;7.43;5.20;;;19.10;49.10;19.60;102320.00;;;;4991679;28;20190;-53
2022/03/26 09:43:43;;;;;;;7.87;5.17;;;19.10;49.10;19.60;102317.00;;;;4991622;28;20172;-52
2022/03/26 09:46:08;;;;;;;8.53;4.70;;;19.00;49.10;19.60;102317.00;;;;4991384;28;20557;-51
2022/03/26 09:48:36;;;;;;;7.57;4.80;;;19.00;49.10;19.60;102282.00;;;;4991735;28;20196;-52
2022/03/26 09:51:02;;;;;;;7.30;5.40;;;19.00;49.20;19.60;102317.00;;;;4990224;28;20647;-50
2022/03/26 09:53:28;;;;;;;7.87;5.03;;;19.00;49.30;19.60;102292.00;;;;4974457;28;20462;-51
2022/03/26 09:55:54;;;;;;;5.83;5.13;;;19.00;49.40;19.60;102307.00;;;;4991217;28;20175;-53
2022/03/26 09:58:19;;;;;;;7.47;4.93;;;19.00;49.40;19.60;102311.00;;;;4990171;28;20306;-51
2022/03/26 10:00:45;;;;;;;9.17;5.00;;;19.00;49.40;19.60;102314.00;;;;4991858;28;20165;-51
2022/03/26 10:03:11;;;;;;;7.33;4.93;;;19.00;49.40;19.60;102307.00;;;;4991655;28;20230;-49
2022/03/26 10:05:37;;;;;;;5.77;4.90;;;19.00;49.40;19.60;102316.00;;;;4991511;28;20207;-51
2022/03/26 10:08:22;;;;;;;6.83;5.13;;;19.00;49.40;19.60;102303.00;;;;4991294;28;20203;-51
2022/03/26 10:10:49;;;;;;;6.20;4.80;;;19.10;49.50;19.60;102309.00;;;;4990436;28;20535;-53
2022/03/26 10:13:39;;;;;;;5.47;4.90;;;19.00;49.40;19.60;102316.00;;;;4989979;28;20271;-52
2022/03/26 10:16:08;;;;;;;5.83;4.83;;;19.00;49.40;19.60;102304.00;;;;4989890;28;20253;-50
2022/03/26 10:18:38;;;;;;;5.63;4.80;;;19.00;49.40;19.60;102314.00;;;;4989986;28;20273;-51
2022/03/26 10:21:07;;;;;;;5.30;4.80;;;19.00;49.40;19.60;102306.00;;;;4990544;28;20203;-52
2022/03/26 10:23:33;;;;;;;5.30;4.80;;;19.00;49.40;19.60;102314.00;;;;4992342;28;20184;-51
2022/03/26 10:26:06;;;;;;;5.43;4.80;;;19.00;49.40;19.60;102300.00;;;;4989804;28;20325;-53
2022/03/26 10:28:31;;;;;;;4.90;4.40;;;19.00;49.40;19.60;102302.00;;;;4990904;28;20180;-52
2022/03/26 10:34:13;;;;;;;5.27;4.77;;;19.00;49.60;19.60;102295.00;;;;4990146;28;20179;-53
2022/03/26 10:36:53;;;;;;;6.00;4.60;;;19.00;49.60;19.60;102289.00;;;;4990946;28;20180;-53
2022/03/26 10:39:23;;;;;;;6.07;4.50;;;19.00;49.70;19.60;102284.00;;;;4990931;28;20199;-52
2022/03/26 10:41:50;;;;;;;5.33;4.60;;;19.00;49.70;19.60;102283.00;;;;4989167;28;20648;-52
2022/03/26 10:44:17;;;;;;;5.17;4.43;;;19.10;49.80;19.70;102279.00;;;;4990003;28;20771;-52
2022/03/26 10:46:50;;;;;;;5.17;4.17;;;19.10;49.80;19.70;102287.00;;;;4989580;28;20181;-52
2022/03/26 10:49:32;;;;;;;5.87;4.60;;;19.10;49.80;19.70;102286.00;;;;4989170;28;20233;-51